sensor_id;sensor_type;location;lat;lon;timestamp;P1;durP1;ratioP1;P2;durP2;ratioP2
67063;SDS011;58476;48.072;11.970;2022-09-09T00:01:42;1.38;;;0.80;;
67063;SDS011;58476;48.072;11.970;2022-09-09T00:04:23;1.08;;;1.00;;
67063;SDS011;58476;48.072;11.970;2022-09-09T00:06:57;1.10;;;0.93;;
67063;SDS011;58476;48.072;11.970;2022-09-09T00:09:31;1.10;;;1.00;;
67063;SDS011;58476;48.072;11.970;2022-09-09T00:14:45;0.80;;;0.80;;
67063;SDS011;58476;48.072;11.970;2022-09-09T00:22:44;0.85;;;0.85;;
67063;SDS011;58476;48.072;11.970;2022-09-09T00:25:19;1.60;;;0.85;;
67063;SDS011;58476;48.072;11.970;2022-09-09T00:27:51;1.20;;;0.90;;
67063;SDS011;58476;48.072;11.970;2022-09-09T00:30:24;2.22;;;1.00;;
67063;SDS011;58476;48.072;11.970;2022-09-09T00:32:55;1.05;;;1.00;;
67063;SDS011;58476;48.072;11.970;2022-09-09T00:35:29;1.10;;;0.90;;
67063;SDS011;58476;48.072;11.970;2022-09-09T00:38:09;2.15;;;1.08;;
67063;SDS011;58476;48.072;11.970;2022-09-09T00:43:37;1.60;;;0.85;;
67063;SDS011;58476;48.072;11.970;2022-09-09T00:46:10;2.28;;;0.95;;
67063;SDS011;58476;48.072;11.970;2022-09-09T00:54:33;1.15;;;0.90;;
67063;SDS011;58476;48.072;11.970;2022-09-09T00:59:48;1.10;;;1.00;;
67063;SDS011;58476;48.072;11.970;2022-09-09T01:04:53;1.20;;;1.10;;
67063;SDS011;58476;48.072;11.970;2022-09-09T01:07:18;0.88;;;0.88;;
67063;SDS011;58476;48.072;11.970;2022-09-09T01:12:17;1.83;;;1.02;;
67063;SDS011;58476;48.072;11.970;2022-09-09T01:14:52;1.00;;;1.00;;
67063;SDS011;58476;48.072;11.970;2022-09-09T01:17:31;1.17;;;1.08;;
67063;SDS011;58476;48.072;11.970;2022-09-09T01:20:13;1.70;;;1.00;;
67063;SDS011;58476;48.072;11.970;2022-09-09T01:22:57;1.33;;;1.00;;
67063;SDS011;58476;48.072;11.970;2022-09-09T01:28:47;1.00;;;0.95;;
67063;SDS011;58476;48.072;11.970;2022-09-09T01:31:17;1.10;;;1.00;;
67063;SDS011;58476;48.072;11.970;2022-09-09T01:33:47;2.38;;;1.13;;
67063;SDS011;58476;48.072;11.970;2022-09-09T01:36:33;1.20;;;1.10;;
67063;SDS011;58476;48.072;11.970;2022-09-09T01:39:04;0.90;;;0.90;;
67063;SDS011;58476;48.072;11.970;2022-09-09T01:41:30;1.20;;;1.10;;
67063;SDS011;58476;48.072;11.970;2022-09-09T01:44:02;0.95;;;0.85;;
67063;SDS011;58476;48.072;11.970;2022-09-09T01:46:30;2.25;;;1.13;;
67063;SDS011;58476;48.072;11.970;2022-09-09T01:48:56;2.15;;;1.02;;
67063;SDS011;58476;48.072;11.970;2022-09-09T01:51:23;1.77;;;1.02;;
67063;SDS011;58476;48.072;11.970;2022-09-09T01:53:49;1.25;;;1.10;;
67063;SDS011;58476;48.072;11.970;2022-09-09T01:58:52;0.90;;;0.90;;
67063;SDS011;58476;48.072;11.970;2022-09-09T02:06:47;1.52;;;1.05;;
67063;SDS011;58476;48.072;11.970;2022-09-09T02:09:23;0.90;;;0.77;;
67063;SDS011;58476;48.072;11.970;2022-09-09T02:12:00;0.95;;;0.88;;
67063;SDS011;58476;48.072;11.970;2022-09-09T02:14:56;1.00;;;1.00;;
67063;SDS011;58476;48.072;11.970;2022-09-09T02:17:32;0.88;;;0.88;;
67063;SDS011;58476;48.072;11.970;2022-09-09T02:20:08;2.05;;;1.02;;
67063;SDS011;58476;48.072;11.970;2022-09-09T02:22:51;1.50;;;0.90;;
67063;SDS011;58476;48.072;11.970;2022-09-09T02:25:19;1.40;;;1.00;;
67063;SDS011;58476;48.072;11.970;2022-09-09T02:27:49;1.02;;;1.00;;
67063;SDS011;58476;48.072;11.970;2022-09-09T02:30:16;1.85;;;1.13;;
67063;SDS011;58476;48.072;11.970;2022-09-09T02:32:50;1.17;;;1.05;;
67063;SDS011;58476;48.072;11.970;2022-09-09T02:35:19;1.23;;;1.10;;
67063;SDS011;58476;48.072;11.970;2022-09-09T02:37:48;2.27;;;1.10;;
67063;SDS011;58476;48.072;11.970;2022-09-09T02:40:16;1.10;;;1.00;;
67063;SDS011;58476;48.072;11.970;2022-09-09T02:42:46;1.05;;;1.00;;
67063;SDS011;58476;48.072;11.970;2022-09-09T02:45:15;1.70;;;1.20;;
67063;SDS011;58476;48.072;11.970;2022-09-09T02:50:31;1.75;;;1.00;;
67063;SDS011;58476;48.072;11.970;2022-09-09T02:57:59;1.15;;;0.90;;
67063;SDS011;58476;48.072;11.970;2022-09-09T03:00:28;2.03;;;1.02;;
67063;SDS011;58476;48.072;11.970;2022-09-09T03:02:57;1.15;;;1.02;;
67063;SDS011;58476;48.072;11.970;2022-09-09T03:05:22;1.00;;;1.00;;
67063;SDS011;58476;48.072;11.970;2022-09-09T03:07:49;0.95;;;0.90;;
67063;SDS011;58476;48.072;11.970;2022-09-09T03:10:15;1.17;;;0.90;;
67063;SDS011;58476;48.072;11.970;2022-09-09T03:12:41;3.28;;;1.20;;
67063;SDS011;58476;48.072;11.970;2022-09-09T03:15:07;0.90;;;0.90;;
67063;SDS011;58476;48.072;11.970;2022-09-09T03:17:33;0.88;;;0.70;;
67063;SDS011;58476;48.072;11.970;2022-09-09T03:19:58;0.98;;;0.98;;
67063;SDS011;58476;48.072;11.970;2022-09-09T03:22:24;1.10;;;1.00;;
67063;SDS011;58476;48.072;11.970;2022-09-09T03:24:50;0.90;;;0.90;;
67063;SDS011;58476;48.072;11.970;2022-09-09T03:27:16;1.63;;;1.00;;
67063;SDS011;58476;48.072;11.970;2022-09-09T03:29:42;1.45;;;0.90;;
67063;SDS011;58476;48.072;11.970;2022-09-09T03:32:12;1.40;;;0.90;;
67063;SDS011;58476;48.072;11.970;2022-09-09T03:34:39;0.90;;;0.90;;
67063;SDS011;58476;48.072;11.970;2022-09-09T03:37:05;1.00;;;0.93;;
67063;SDS011;58476;48.072;11.970;2022-09-09T03:39:31;0.70;;;0.70;;
67063;SDS011;58476;48.072;11.970;2022-09-09T03:41:57;0.80;;;0.80;;
67063;SDS011;58476;48.072;11.970;2022-09-09T03:44:23;1.02;;;0.80;;
67063;SDS011;58476;48.072;11.970;2022-09-09T03:46:48;1.05;;;0.95;;
67063;SDS011;58476;48.072;11.970;2022-09-09T03:49:13;0.98;;;0.82;;
67063;SDS011;58476;48.072;11.970;2022-09-09T03:51:39;1.00;;;0.88;;
67063;SDS011;58476;48.072;11.970;2022-09-09T03:54:05;2.03;;;0.95;;
67063;SDS011;58476;48.072;11.970;2022-09-09T03:56:31;1.02;;;0.90;;
67063;SDS011;58476;48.072;11.970;2022-09-09T03:58:58;0.80;;;0.80;;
67063;SDS011;58476;48.072;11.970;2022-09-09T04:01:24;0.85;;;0.85;;
67063;SDS011;58476;48.072;11.970;2022-09-09T04:03:49;0.73;;;0.70;;
67063;SDS011;58476;48.072;11.970;2022-09-09T04:06:14;1.65;;;0.85;;
67063;SDS011;58476;48.072;11.970;2022-09-09T04:08:43;0.80;;;0.80;;
67063;SDS011;58476;48.072;11.970;2022-09-09T04:11:08;1.13;;;0.90;;
67063;SDS011;58476;48.072;11.970;2022-09-09T04:13:35;2.13;;;0.80;;
67063;SDS011;58476;48.072;11.970;2022-09-09T04:16:02;0.80;;;0.80;;
67063;SDS011;58476;48.072;11.970;2022-09-09T04:18:28;0.70;;;0.70;;
67063;SDS011;58476;48.072;11.970;2022-09-09T04:20:54;1.73;;;0.70;;
67063;SDS011;58476;48.072;11.970;2022-09-09T04:23:22;1.20;;;1.00;;
67063;SDS011;58476;48.072;11.970;2022-09-09T04:25:48;1.80;;;0.80;;
67063;SDS011;58476;48.072;11.970;2022-09-09T04:28:15;1.73;;;0.85;;
67063;SDS011;58476;48.072;11.970;2022-09-09T04:30:43;0.77;;;0.77;;
67063;SDS011;58476;48.072;11.970;2022-09-09T04:33:09;0.88;;;0.88;;
67063;SDS011;58476;48.072;11.970;2022-09-09T04:35:35;0.70;;;0.70;;
67063;SDS011;58476;48.072;11.970;2022-09-09T04:38:00;1.55;;;0.90;;
67063;SDS011;58476;48.072;11.970;2022-09-09T04:40:26;0.80;;;0.80;;
67063;SDS011;58476;48.072;11.970;2022-09-09T04:42:52;1.00;;;1.00;;
67063;SDS011;58476;48.072;11.970;2022-09-09T04:45:17;1.25;;;0.88;;
67063;SDS011;58476;48.072;11.970;2022-09-09T04:47:42;0.85;;;0.80;;
67063;SDS011;58476;48.072;11.970;2022-09-09T04:50:08;0.85;;;0.80;;
67063;SDS011;58476;48.072;11.970;2022-09-09T04:52:34;1.05;;;0.93;;
67063;SDS011;58476;48.072;11.970;2022-09-09T04:55:00;1.15;;;0.80;;
67063;SDS011;58476;48.072;11.970;2022-09-09T04:57:26;0.80;;;0.75;;
67063;SDS011;58476;48.072;11.970;2022-09-09T04:59:52;0.93;;;0.88;;
67063;SDS011;58476;48.072;11.970;2022-09-09T05:02:17;1.95;;;0.85;;
67063;SDS011;58476;48.072;11.970;2022-09-09T05:04:43;4.38;;;1.00;;
67063;SDS011;58476;48.072;11.970;2022-09-09T05:07:08;1.10;;;1.00;;
67063;SDS011;58476;48.072;11.970;2022-09-09T05:09:33;1.35;;;0.90;;
67063;SDS011;58476;48.072;11.970;2022-09-09T05:11:59;0.80;;;0.80;;
67063;SDS011;58476;48.072;11.970;2022-09-09T05:14:29;0.93;;;0.77;;
67063;SDS011;58476;48.072;11.970;2022-09-09T05:16:55;0.82;;;0.82;;
67063;SDS011;58476;48.072;11.970;2022-09-09T05:19:21;1.25;;;1.15;;
67063;SDS011;58476;48.072;11.970;2022-09-09T05:21:48;0.80;;;0.80;;
67063;SDS011;58476;48.072;11.970;2022-09-09T05:24:16;1.27;;;0.93;;
67063;SDS011;58476;48.072;11.970;2022-09-09T05:26:42;0.60;;;0.60;;
67063;SDS011;58476;48.072;11.970;2022-09-09T05:29:08;0.80;;;0.73;;
67063;SDS011;58476;48.072;11.970;2022-09-09T05:31:34;0.70;;;0.70;;
67063;SDS011;58476;48.072;11.970;2022-09-09T05:34:02;1.35;;;0.90;;
67063;SDS011;58476;48.072;11.970;2022-09-09T05:36:28;1.23;;;0.80;;
67063;SDS011;58476;48.072;11.970;2022-09-09T05:38:55;0.95;;;0.95;;
67063;SDS011;58476;48.072;11.970;2022-09-09T05:41:21;0.70;;;0.70;;
67063;SDS011;58476;48.072;11.970;2022-09-09T05:43:47;1.88;;;0.90;;
67063;SDS011;58476;48.072;11.970;2022-09-09T05:46:14;2.25;;;1.30;;
67063;SDS011;58476;48.072;11.970;2022-09-09T05:48:42;1.58;;;1.10;;
67063;SDS011;58476;48.072;11.970;2022-09-09T05:51:09;1.73;;;1.10;;
67063;SDS011;58476;48.072;11.970;2022-09-09T05:53:36;1.92;;;1.13;;
67063;SDS011;58476;48.072;11.970;2022-09-09T05:56:09;2.78;;;1.10;;
67063;SDS011;58476;48.072;11.970;2022-09-09T05:58:39;2.45;;;1.20;;
67063;SDS011;58476;48.072;11.970;2022-09-09T06:01:09;4.75;;;1.08;;
67063;SDS011;58476;48.072;11.970;2022-09-09T06:03:40;3.03;;;0.88;;
67063;SDS011;58476;48.072;11.970;2022-09-09T06:06:07;4.85;;;1.08;;
67063;SDS011;58476;48.072;11.970;2022-09-09T06:08:35;1.20;;;1.10;;
67063;SDS011;58476;48.072;11.970;2022-09-09T06:11:03;1.52;;;1.00;;
67063;SDS011;58476;48.072;11.970;2022-09-09T06:13:30;2.05;;;1.00;;
67063;SDS011;58476;48.072;11.970;2022-09-09T06:15:56;0.80;;;0.80;;
67063;SDS011;58476;48.072;11.970;2022-09-09T06:18:21;1.75;;;1.00;;
67063;SDS011;58476;48.072;11.970;2022-09-09T06:21:08;1.90;;;1.00;;
67063;SDS011;58476;48.072;11.970;2022-09-09T06:23:46;2.80;;;1.00;;
67063;SDS011;58476;48.072;11.970;2022-09-09T06:26:13;4.05;;;1.35;;
67063;SDS011;58476;48.072;11.970;2022-09-09T06:28:41;3.58;;;0.98;;
67063;SDS011;58476;48.072;11.970;2022-09-09T06:31:07;6.22;;;1.15;;
67063;SDS011;58476;48.072;11.970;2022-09-09T06:33:35;2.53;;;1.20;;
67063;SDS011;58476;48.072;11.970;2022-09-09T06:36:03;5.53;;;1.40;;
67063;SDS011;58476;48.072;11.970;2022-09-09T06:38:29;3.15;;;1.45;;
67063;SDS011;58476;48.072;11.970;2022-09-09T06:40:55;4.32;;;1.52;;
67063;SDS011;58476;48.072;11.970;2022-09-09T06:43:22;1.95;;;1.60;;
67063;SDS011;58476;48.072;11.970;2022-09-09T06:45:53;3.72;;;1.63;;
67063;SDS011;58476;48.072;11.970;2022-09-09T06:48:22;6.25;;;1.60;;
67063;SDS011;58476;48.072;11.970;2022-09-09T06:50:49;4.80;;;1.80;;
67063;SDS011;58476;48.072;11.970;2022-09-09T06:53:15;4.13;;;1.40;;
67063;SDS011;58476;48.072;11.970;2022-09-09T06:55:42;3.95;;;1.55;;
67063;SDS011;58476;48.072;11.970;2022-09-09T06:58:08;2.63;;;1.50;;
67063;SDS011;58476;48.072;11.970;2022-09-09T07:00:34;4.57;;;1.30;;
67063;SDS011;58476;48.072;11.970;2022-09-09T07:03:00;5.53;;;1.55;;
67063;SDS011;58476;48.072;11.970;2022-09-09T07:05:26;3.22;;;1.40;;
67063;SDS011;58476;48.072;11.970;2022-09-09T07:07:51;4.07;;;1.30;;
67063;SDS011;58476;48.072;11.970;2022-09-09T07:10:18;4.93;;;1.40;;
67063;SDS011;58476;48.072;11.970;2022-09-09T07:12:44;3.30;;;1.30;;
67063;SDS011;58476;48.072;11.970;2022-09-09T07:15:11;8.98;;;1.48;;
67063;SDS011;58476;48.072;11.970;2022-09-09T07:17:40;13.43;;;1.33;;
67063;SDS011;58476;48.072;11.970;2022-09-09T07:20:05;7.75;;;1.40;;
67063;SDS011;58476;48.072;11.970;2022-09-09T07:22:31;3.13;;;1.30;;
67063;SDS011;58476;48.072;11.970;2022-09-09T07:24:57;4.57;;;1.40;;
67063;SDS011;58476;48.072;11.970;2022-09-09T07:27:23;5.90;;;1.25;;
67063;SDS011;58476;48.072;11.970;2022-09-09T07:29:49;6.30;;;1.42;;
67063;SDS011;58476;48.072;11.970;2022-09-09T07:32:14;5.50;;;1.45;;
67063;SDS011;58476;48.072;11.970;2022-09-09T07:34:39;4.35;;;1.30;;
67063;SDS011;58476;48.072;11.970;2022-09-09T07:37:05;4.85;;;1.08;;
67063;SDS011;58476;48.072;11.970;2022-09-09T07:39:32;4.72;;;1.40;;
67063;SDS011;58476;48.072;11.970;2022-09-09T07:41:57;4.38;;;1.30;;
67063;SDS011;58476;48.072;11.970;2022-09-09T07:44:24;5.28;;;1.60;;
67063;SDS011;58476;48.072;11.970;2022-09-09T07:46:56;3.75;;;1.35;;
67063;SDS011;58476;48.072;11.970;2022-09-09T07:49:26;9.95;;;1.83;;
67063;SDS011;58476;48.072;11.970;2022-09-09T07:51:51;13.95;;;3.03;;
67063;SDS011;58476;48.072;11.970;2022-09-09T07:54:18;7.93;;;2.42;;
67063;SDS011;58476;48.072;11.970;2022-09-09T07:56:44;19.10;;;4.32;;
67063;SDS011;58476;48.072;11.970;2022-09-09T07:59:10;8.40;;;1.98;;
67063;SDS011;58476;48.072;11.970;2022-09-09T08:01:38;8.10;;;2.25;;
67063;SDS011;58476;48.072;11.970;2022-09-09T08:04:08;10.52;;;2.55;;
67063;SDS011;58476;48.072;11.970;2022-09-09T08:06:36;8.60;;;2.33;;
67063;SDS011;58476;48.072;11.970;2022-09-09T08:09:04;13.50;;;1.90;;
67063;SDS011;58476;48.072;11.970;2022-09-09T08:11:31;5.85;;;1.88;;
67063;SDS011;58476;48.072;11.970;2022-09-09T08:13:57;8.88;;;1.80;;
67063;SDS011;58476;48.072;11.970;2022-09-09T08:16:23;8.25;;;2.00;;
67063;SDS011;58476;48.072;11.970;2022-09-09T08:18:51;7.38;;;2.20;;
67063;SDS011;58476;48.072;11.970;2022-09-09T08:21:19;12.95;;;2.42;;
67063;SDS011;58476;48.072;11.970;2022-09-09T08:23:49;10.98;;;2.38;;
67063;SDS011;58476;48.072;11.970;2022-09-09T08:26:16;16.33;;;3.40;;
67063;SDS011;58476;48.072;11.970;2022-09-09T08:28:44;30.42;;;7.13;;
67063;SDS011;58476;48.072;11.970;2022-09-09T08:31:11;38.40;;;7.72;;
67063;SDS011;58476;48.072;11.970;2022-09-09T08:33:41;19.38;;;4.38;;
67063;SDS011;58476;48.072;11.970;2022-09-09T08:36:09;24.85;;;5.63;;
67063;SDS011;58476;48.072;11.970;2022-09-09T08:38:36;28.27;;;6.90;;
67063;SDS011;58476;48.072;11.970;2022-09-09T08:43:46;13.75;;;3.30;;
67063;SDS011;58476;48.072;11.970;2022-09-09T08:46:57;17.25;;;5.13;;
67063;SDS011;58476;48.072;11.970;2022-09-09T08:52:03;10.73;;;2.50;;
67063;SDS011;58476;48.072;11.970;2022-09-09T08:54:39;9.07;;;2.42;;
67063;SDS011;58476;48.072;11.970;2022-09-09T08:57:05;10.73;;;2.60;;
67063;SDS011;58476;48.072;11.970;2022-09-09T08:59:39;7.30;;;2.05;;
67063;SDS011;58476;48.072;11.970;2022-09-09T09:02:19;8.35;;;2.10;;
67063;SDS011;58476;48.072;11.970;2022-09-09T09:12:50;26.33;;;3.70;;
67063;SDS011;58476;48.072;11.970;2022-09-09T09:15:23;16.23;;;2.10;;
67063;SDS011;58476;48.072;11.970;2022-09-09T09:17:52;7.75;;;2.03;;
67063;SDS011;58476;48.072;11.970;2022-09-09T09:20:20;11.30;;;2.53;;
67063;SDS011;58476;48.072;11.970;2022-09-09T09:22:57;5.50;;;1.90;;
67063;SDS011;58476;48.072;11.970;2022-09-09T09:25:29;7.18;;;1.80;;
67063;SDS011;58476;48.072;11.970;2022-09-09T09:30:26;9.43;;;1.90;;
67063;SDS011;58476;48.072;11.970;2022-09-09T09:33:11;6.20;;;1.65;;
67063;SDS011;58476;48.072;11.970;2022-09-09T09:35:43;8.50;;;1.70;;
67063;SDS011;58476;48.072;11.970;2022-09-09T09:38:15;7.43;;;1.70;;
67063;SDS011;58476;48.072;11.970;2022-09-09T09:40:52;10.35;;;2.15;;
67063;SDS011;58476;48.072;11.970;2022-09-09T09:43:24;12.00;;;1.85;;
67063;SDS011;58476;48.072;11.970;2022-09-09T09:45:51;10.45;;;2.47;;
67063;SDS011;58476;48.072;11.970;2022-09-09T09:48:16;10.38;;;1.92;;
67063;SDS011;58476;48.072;11.970;2022-09-09T09:50:53;17.98;;;3.13;;
67063;SDS011;58476;48.072;11.970;2022-09-09T09:53:25;14.55;;;3.17;;
67063;SDS011;58476;48.072;11.970;2022-09-09T09:55:57;45.90;;;17.70;;
67063;SDS011;58476;48.072;11.970;2022-09-09T09:58:25;18.70;;;6.40;;
67063;SDS011;58476;48.072;11.970;2022-09-09T10:00:53;21.10;;;6.30;;
67063;SDS011;58476;48.072;11.970;2022-09-09T10:03:27;16.50;;;5.65;;
67063;SDS011;58476;48.072;11.970;2022-09-09T10:05:55;19.52;;;5.78;;
67063;SDS011;58476;48.072;11.970;2022-09-09T10:08:20;20.67;;;4.95;;
67063;SDS011;58476;48.072;11.970;2022-09-09T10:14:01;13.50;;;4.25;;
67063;SDS011;58476;48.072;11.970;2022-09-09T10:19:29;11.30;;;4.30;;
67063;SDS011;58476;48.072;11.970;2022-09-09T10:22:02;14.05;;;4.50;;
67063;SDS011;58476;48.072;11.970;2022-09-09T10:30:06;12.23;;;4.00;;
67063;SDS011;58476;48.072;11.970;2022-09-09T10:32:36;11.45;;;3.70;;
67063;SDS011;58476;48.072;11.970;2022-09-09T10:35:04;9.75;;;4.35;;
67063;SDS011;58476;48.072;11.970;2022-09-09T10:45:49;13.40;;;4.18;;
67063;SDS011;58476;48.072;11.970;2022-09-09T10:51:13;9.68;;;2.90;;
67063;SDS011;58476;48.072;11.970;2022-09-09T10:53:51;10.57;;;3.00;;
67063;SDS011;58476;48.072;11.970;2022-09-09T10:56:27;7.78;;;3.13;;
67063;SDS011;58476;48.072;11.970;2022-09-09T10:58:58;9.15;;;3.03;;
67063;SDS011;58476;48.072;11.970;2022-09-09T11:01:43;10.70;;;3.10;;
67063;SDS011;58476;48.072;11.970;2022-09-09T11:04:17;9.35;;;3.30;;
67063;SDS011;58476;48.072;11.970;2022-09-09T11:06:54;6.47;;;2.72;;
67063;SDS011;58476;48.072;11.970;2022-09-09T11:09:24;11.85;;;3.00;;
67063;SDS011;58476;48.072;11.970;2022-09-09T11:11:54;9.07;;;2.67;;
67063;SDS011;58476;48.072;11.970;2022-09-09T11:14:28;12.23;;;2.83;;
67063;SDS011;58476;48.072;11.970;2022-09-09T11:19:41;8.30;;;2.90;;
67063;SDS011;58476;48.072;11.970;2022-09-09T11:24:53;5.57;;;2.22;;
67063;SDS011;58476;48.072;11.970;2022-09-09T11:27:36;10.20;;;2.88;;
67063;SDS011;58476;48.072;11.970;2022-09-09T11:30:17;7.18;;;2.47;;
67063;SDS011;58476;48.072;11.970;2022-09-09T11:35:38;10.48;;;2.45;;
67063;SDS011;58476;48.072;11.970;2022-09-09T11:38:32;8.35;;;2.50;;
67063;SDS011;58476;48.072;11.970;2022-09-09T11:41:12;7.78;;;2.22;;
67063;SDS011;58476;48.072;11.970;2022-09-09T11:43:46;10.98;;;2.50;;
67063;SDS011;58476;48.072;11.970;2022-09-09T11:46:15;10.55;;;2.20;;
67063;SDS011;58476;48.072;11.970;2022-09-09T11:48:43;10.57;;;2.55;;
67063;SDS011;58476;48.072;11.970;2022-09-09T11:54:47;10.15;;;2.58;;
67063;SDS011;58476;48.072;11.970;2022-09-09T11:56:54;4.45;;;1.95;;
67063;SDS011;58476;48.072;11.970;2022-09-09T11:59:27;7.72;;;1.80;;
67063;SDS011;58476;48.072;11.970;2022-09-09T12:01:55;10.88;;;2.28;;
67063;SDS011;58476;48.072;11.970;2022-09-09T12:04:40;5.97;;;1.65;;
67063;SDS011;58476;48.072;11.970;2022-09-09T12:07:30;7.07;;;2.10;;
67063;SDS011;58476;48.072;11.970;2022-09-09T12:10:02;4.80;;;2.00;;
67063;SDS011;58476;48.072;11.970;2022-09-09T12:12:48;4.38;;;1.73;;
67063;SDS011;58476;48.072;11.970;2022-09-09T12:15:19;9.93;;;1.77;;
67063;SDS011;58476;48.072;11.970;2022-09-09T12:17:48;4.55;;;1.70;;
67063;SDS011;58476;48.072;11.970;2022-09-09T12:20:21;4.22;;;1.90;;
67063;SDS011;58476;48.072;11.970;2022-09-09T12:28:33;3.25;;;1.77;;
67063;SDS011;58476;48.072;11.970;2022-09-09T12:31:25;4.35;;;1.70;;
67063;SDS011;58476;48.072;11.970;2022-09-09T12:34:16;5.05;;;1.50;;
67063;SDS011;58476;48.072;11.970;2022-09-09T12:39:58;5.70;;;1.60;;
67063;SDS011;58476;48.072;11.970;2022-09-09T12:42:44;6.80;;;1.63;;
67063;SDS011;58476;48.072;11.970;2022-09-09T12:45:16;8.82;;;1.95;;
67063;SDS011;58476;48.072;11.970;2022-09-09T12:47:48;6.75;;;1.58;;
67063;SDS011;58476;48.072;11.970;2022-09-09T12:50:21;5.75;;;1.30;;
67063;SDS011;58476;48.072;11.970;2022-09-09T12:52:49;3.97;;;1.40;;
67063;SDS011;58476;48.072;11.970;2022-09-09T12:55:20;7.93;;;1.55;;
67063;SDS011;58476;48.072;11.970;2022-09-09T12:57:49;3.63;;;1.55;;
67063;SDS011;58476;48.072;11.970;2022-09-09T13:00:16;7.30;;;1.20;;
67063;SDS011;58476;48.072;11.970;2022-09-09T13:02:48;5.97;;;1.30;;
67063;SDS011;58476;48.072;11.970;2022-09-09T13:05:21;5.47;;;1.40;;
67063;SDS011;58476;48.072;11.970;2022-09-09T13:07:48;5.05;;;1.60;;
67063;SDS011;58476;48.072;11.970;2022-09-09T13:10:15;8.18;;;1.60;;
67063;SDS011;58476;48.072;11.970;2022-09-09T13:12:49;5.85;;;1.40;;
67063;SDS011;58476;48.072;11.970;2022-09-09T13:15:19;3.78;;;1.60;;
67063;SDS011;58476;48.072;11.970;2022-09-09T13:17:50;5.30;;;1.35;;
67063;SDS011;58476;48.072;11.970;2022-09-09T13:20:21;7.22;;;1.58;;
67063;SDS011;58476;48.072;11.970;2022-09-09T13:22:48;6.60;;;1.27;;
67063;SDS011;58476;48.072;11.970;2022-09-09T13:33:02;6.63;;;1.27;;
67063;SDS011;58476;48.072;11.970;2022-09-09T13:35:31;4.28;;;1.10;;
67063;SDS011;58476;48.072;11.970;2022-09-09T13:37:57;4.10;;;1.77;;
67063;SDS011;58476;48.072;11.970;2022-09-09T13:40:23;3.83;;;1.50;;
67063;SDS011;58476;48.072;11.970;2022-09-09T13:42:56;4.07;;;1.30;;
67063;SDS011;58476;48.072;11.970;2022-09-09T13:45:23;3.80;;;1.20;;
67063;SDS011;58476;48.072;11.970;2022-09-09T13:47:50;3.80;;;1.20;;
67063;SDS011;58476;48.072;11.970;2022-09-09T13:52:53;5.70;;;1.15;;
67063;SDS011;58476;48.072;11.970;2022-09-09T13:57:50;2.65;;;1.30;;
67063;SDS011;58476;48.072;11.970;2022-09-09T14:00:16;2.97;;;1.10;;
67063;SDS011;58476;48.072;11.970;2022-09-09T14:02:42;2.88;;;1.00;;
67063;SDS011;58476;48.072;11.970;2022-09-09T14:05:07;3.72;;;1.05;;
67063;SDS011;58476;48.072;11.970;2022-09-09T14:07:32;3.75;;;1.10;;
67063;SDS011;58476;48.072;11.970;2022-09-09T14:09:58;4.57;;;1.10;;
67063;SDS011;58476;48.072;11.970;2022-09-09T14:12:23;2.63;;;1.05;;
67063;SDS011;58476;48.072;11.970;2022-09-09T14:14:49;4.90;;;1.40;;
67063;SDS011;58476;48.072;11.970;2022-09-09T14:17:14;4.32;;;1.13;;
67063;SDS011;58476;48.072;11.970;2022-09-09T14:19:39;2.63;;;1.25;;
67063;SDS011;58476;48.072;11.970;2022-09-09T14:22:05;1.00;;;0.80;;
67063;SDS011;58476;48.072;11.970;2022-09-09T14:24:30;2.95;;;1.25;;
67063;SDS011;58476;48.072;11.970;2022-09-09T14:26:55;2.30;;;0.90;;
67063;SDS011;58476;48.072;11.970;2022-09-09T14:29:20;1.60;;;1.00;;
67063;SDS011;58476;48.072;11.970;2022-09-09T14:31:46;2.38;;;0.90;;
67063;SDS011;58476;48.072;11.970;2022-09-09T14:34:11;2.75;;;1.02;;
67063;SDS011;58476;48.072;11.970;2022-09-09T14:36:37;2.22;;;1.17;;
67063;SDS011;58476;48.072;11.970;2022-09-09T14:39:03;2.47;;;0.85;;
67063;SDS011;58476;48.072;11.970;2022-09-09T14:41:29;2.20;;;0.90;;
67063;SDS011;58476;48.072;11.970;2022-09-09T14:43:54;1.40;;;1.00;;
67063;SDS011;58476;48.072;11.970;2022-09-09T14:46:19;3.00;;;1.02;;
67063;SDS011;58476;48.072;11.970;2022-09-09T14:48:45;2.60;;;0.98;;
67063;SDS011;58476;48.072;11.970;2022-09-09T14:51:13;2.28;;;1.10;;
67063;SDS011;58476;48.072;11.970;2022-09-09T14:53:41;2.47;;;0.88;;
67063;SDS011;58476;48.072;11.970;2022-09-09T14:56:09;1.85;;;1.00;;
67063;SDS011;58476;48.072;11.970;2022-09-09T14:58:36;1.60;;;0.90;;
67063;SDS011;58476;48.072;11.970;2022-09-09T15:01:06;1.42;;;1.13;;
67063;SDS011;58476;48.072;11.970;2022-09-09T15:03:36;1.70;;;1.00;;
67063;SDS011;58476;48.072;11.970;2022-09-09T15:06:08;1.55;;;1.00;;
67063;SDS011;58476;48.072;11.970;2022-09-09T15:08:36;4.18;;;0.93;;
67063;SDS011;58476;48.072;11.970;2022-09-09T15:11:03;4.22;;;1.00;;
67063;SDS011;58476;48.072;11.970;2022-09-09T15:13:29;2.05;;;0.68;;
67063;SDS011;58476;48.072;11.970;2022-09-09T15:15:55;1.67;;;1.13;;
67063;SDS011;58476;48.072;11.970;2022-09-09T15:18:20;3.05;;;0.90;;
67063;SDS011;58476;48.072;11.970;2022-09-09T15:20:46;1.42;;;0.90;;
67063;SDS011;58476;48.072;11.970;2022-09-09T15:23:12;1.95;;;0.70;;
67063;SDS011;58476;48.072;11.970;2022-09-09T15:25:37;2.65;;;1.10;;
67063;SDS011;58476;48.072;11.970;2022-09-09T15:28:03;2.42;;;1.05;;
67063;SDS011;58476;48.072;11.970;2022-09-09T15:30:28;2.10;;;0.93;;
67063;SDS011;58476;48.072;11.970;2022-09-09T15:32:54;1.48;;;0.80;;
67063;SDS011;58476;48.072;11.970;2022-09-09T15:35:19;3.40;;;1.20;;
67063;SDS011;58476;48.072;11.970;2022-09-09T15:37:44;1.08;;;0.73;;
67063;SDS011;58476;48.072;11.970;2022-09-09T15:40:10;0.60;;;0.60;;
67063;SDS011;58476;48.072;11.970;2022-09-09T15:45:29;1.27;;;0.85;;
67063;SDS011;58476;48.072;11.970;2022-09-09T15:47:55;1.45;;;1.08;;
67063;SDS011;58476;48.072;11.970;2022-09-09T15:50:20;1.38;;;0.80;;
67063;SDS011;58476;48.072;11.970;2022-09-09T15:52:45;2.17;;;0.80;;
67063;SDS011;58476;48.072;11.970;2022-09-09T15:55:11;1.83;;;0.80;;
67063;SDS011;58476;48.072;11.970;2022-09-09T15:57:36;1.63;;;0.70;;
67063;SDS011;58476;48.072;11.970;2022-09-09T16:00:02;0.95;;;0.65;;
67063;SDS011;58476;48.072;11.970;2022-09-09T16:02:30;1.90;;;0.80;;
67063;SDS011;58476;48.072;11.970;2022-09-09T16:04:55;1.77;;;0.70;;
67063;SDS011;58476;48.072;11.970;2022-09-09T16:07:20;0.88;;;0.80;;
67063;SDS011;58476;48.072;11.970;2022-09-09T16:09:45;3.72;;;0.90;;
67063;SDS011;58476;48.072;11.970;2022-09-09T16:12:11;3.28;;;1.05;;
67063;SDS011;58476;48.072;11.970;2022-09-09T16:14:36;3.92;;;1.13;;
67063;SDS011;58476;48.072;11.970;2022-09-09T16:17:02;3.20;;;1.35;;
67063;SDS011;58476;48.072;11.970;2022-09-09T16:19:28;2.20;;;0.65;;
67063;SDS011;58476;48.072;11.970;2022-09-09T16:21:53;3.47;;;1.02;;
67063;SDS011;58476;48.072;11.970;2022-09-09T16:24:19;2.15;;;0.75;;
67063;SDS011;58476;48.072;11.970;2022-09-09T16:26:50;5.03;;;0.90;;
67063;SDS011;58476;48.072;11.970;2022-09-09T16:29:18;1.95;;;1.08;;
67063;SDS011;58476;48.072;11.970;2022-09-09T16:31:47;5.13;;;1.00;;
67063;SDS011;58476;48.072;11.970;2022-09-09T16:34:14;2.70;;;0.90;;
67063;SDS011;58476;48.072;11.970;2022-09-09T16:36:40;4.45;;;1.00;;
67063;SDS011;58476;48.072;11.970;2022-09-09T16:39:08;5.60;;;1.20;;
67063;SDS011;58476;48.072;11.970;2022-09-09T16:41:35;2.05;;;0.82;;
67063;SDS011;58476;48.072;11.970;2022-09-09T16:44:03;4.57;;;0.90;;